sensor_id;sensor_type;location;lat;lon;timestamp;P1;durP1;ratioP1;P2;durP2;ratioP2
53519;SDS011;39397;53.204;5.778;2023-05-10T00:01:23;10.05;;;9.05;;
53519;SDS011;39397;53.204;5.778;2023-05-10T00:03:49;10.50;;;9.25;;
53519;SDS011;39397;53.204;5.778;2023-05-10T00:06:14;11.95;;;10.75;;
53519;SDS011;39397;53.204;5.778;2023-05-10T00:08:40;12.27;;;9.65;;
53519;SDS011;39397;53.204;5.778;2023-05-10T00:11:06;10.00;;;9.00;;
53519;SDS011;39397;53.204;5.778;2023-05-10T00:13:32;10.23;;;9.23;;
53519;SDS011;39397;53.204;5.778;2023-05-10T00:15:58;8.52;;;7.63;;
53519;SDS011;39397;53.204;5.778;2023-05-10T00:18:24;8.82;;;7.93;;
53519;SDS011;39397;53.204;5.778;2023-05-10T00:20:49;7.13;;;6.43;;
53519;SDS011;39397;53.204;5.778;2023-05-10T00:23:15;6.97;;;5.68;;
53519;SDS011;39397;53.204;5.778;2023-05-10T00:25:41;7.20;;;6.45;;
53519;SDS011;39397;53.204;5.778;2023-05-10T00:28:06;6.40;;;5.80;;
53519;SDS011;39397;53.204;5.778;2023-05-10T00:30:32;7.72;;;6.78;;
53519;SDS011;39397;53.204;5.778;2023-05-10T00:32:58;6.38;;;5.07;;
53519;SDS011;39397;53.204;5.778;2023-05-10T00:35:23;5.75;;;4.45;;
53519;SDS011;39397;53.204;5.778;2023-05-10T00:37:49;5.20;;;4.38;;
53519;SDS011;39397;53.204;5.778;2023-05-10T00:40:15;6.13;;;4.90;;
53519;SDS011;39397;53.204;5.778;2023-05-10T00:42:41;6.28;;;4.70;;
53519;SDS011;39397;53.204;5.778;2023-05-10T00:45:06;8.68;;;6.95;;
53519;SDS011;39397;53.204;5.778;2023-05-10T00:47:32;15.85;;;11.40;;
53519;SDS011;39397;53.204;5.778;2023-05-10T00:49:59;20.70;;;13.60;;
53519;SDS011;39397;53.204;5.778;2023-05-10T00:52:26;27.52;;;15.55;;
53519;SDS011;39397;53.204;5.778;2023-05-10T00:54:52;29.17;;;16.13;;
53519;SDS011;39397;53.204;5.778;2023-05-10T00:57:19;34.97;;;18.38;;
53519;SDS011;39397;53.204;5.778;2023-05-10T00:59:45;40.80;;;19.17;;
53519;SDS011;39397;53.204;5.778;2023-05-10T01:02:11;46.75;;;21.45;;
53519;SDS011;39397;53.204;5.778;2023-05-10T01:04:38;46.08;;;19.40;;
53519;SDS011;39397;53.204;5.778;2023-05-10T01:07:04;43.88;;;21.73;;
53519;SDS011;39397;53.204;5.778;2023-05-10T01:09:30;37.28;;;21.40;;
53519;SDS011;39397;53.204;5.778;2023-05-10T01:11:57;39.75;;;21.95;;
53519;SDS011;39397;53.204;5.778;2023-05-10T01:14:23;38.75;;;20.98;;
53519;SDS011;39397;53.204;5.778;2023-05-10T01:16:50;46.88;;;22.85;;
53519;SDS011;39397;53.204;5.778;2023-05-10T01:19:19;32.80;;;16.60;;
53519;SDS011;39397;53.204;5.778;2023-05-10T01:25:22;43.58;;;20.60;;
53519;SDS011;39397;53.204;5.778;2023-05-10T01:43:48;59.25;;;21.90;;
53519;SDS011;39397;53.204;5.778;2023-05-10T01:46:20;43.35;;;21.30;;
53519;SDS011;39397;53.204;5.778;2023-05-10T01:49:00;45.03;;;21.88;;
53519;SDS011;39397;53.204;5.778;2023-05-10T01:51:28;37.75;;;22.17;;
53519;SDS011;39397;53.204;5.778;2023-05-10T01:54:03;30.13;;;17.40;;
53519;SDS011;39397;53.204;5.778;2023-05-10T01:56:31;21.95;;;16.17;;
53519;SDS011;39397;53.204;5.778;2023-05-10T01:58:59;21.55;;;16.27;;
53519;SDS011;39397;53.204;5.778;2023-05-10T02:01:28;17.40;;;14.45;;
53519;SDS011;39397;53.204;5.778;2023-05-10T02:03:54;17.45;;;12.95;;
53519;SDS011;39397;53.204;5.778;2023-05-10T02:06:22;15.10;;;13.50;;
53519;SDS011;39397;53.204;5.778;2023-05-10T02:08:51;16.15;;;14.45;;
53519;SDS011;39397;53.204;5.778;2023-05-10T02:11:17;15.70;;;13.52;;
53519;SDS011;39397;53.204;5.778;2023-05-10T02:13:47;13.63;;;12.02;;
53519;SDS011;39397;53.204;5.778;2023-05-10T02:16:16;12.43;;;11.23;;
53519;SDS011;39397;53.204;5.778;2023-05-10T02:18:47;9.75;;;8.75;;
53519;SDS011;39397;53.204;5.778;2023-05-10T02:21:14;9.35;;;7.05;;
53519;SDS011;39397;53.204;5.778;2023-05-10T02:23:45;10.68;;;8.13;;
53519;SDS011;39397;53.204;5.778;2023-05-10T02:26:13;8.48;;;7.68;;
53519;SDS011;39397;53.204;5.778;2023-05-10T02:28:40;7.82;;;5.20;;
53519;SDS011;39397;53.204;5.778;2023-05-10T02:31:07;7.07;;;4.30;;
53519;SDS011;39397;53.204;5.778;2023-05-10T02:33:36;4.10;;;3.13;;
53519;SDS011;39397;53.204;5.778;2023-05-10T02:36:05;3.58;;;2.55;;
53519;SDS011;39397;53.204;5.778;2023-05-10T02:38:32;2.90;;;2.15;;
53519;SDS011;39397;53.204;5.778;2023-05-10T02:40:59;3.45;;;2.33;;
53519;SDS011;39397;53.204;5.778;2023-05-10T02:43:26;3.80;;;2.40;;
53519;SDS011;39397;53.204;5.778;2023-05-10T02:46:02;2.70;;;2.20;;
53519;SDS011;39397;53.204;5.778;2023-05-10T02:48:28;2.45;;;2.10;;
53519;SDS011;39397;53.204;5.778;2023-05-10T02:50:56;4.35;;;2.05;;
53519;SDS011;39397;53.204;5.778;2023-05-10T02:53:33;2.28;;;1.67;;
53519;SDS011;39397;53.204;5.778;2023-05-10T02:56:01;3.58;;;2.20;;
53519;SDS011;39397;53.204;5.778;2023-05-10T02:58:32;2.95;;;1.77;;
53519;SDS011;39397;53.204;5.778;2023-05-10T03:00:59;2.65;;;2.00;;
53519;SDS011;39397;53.204;5.778;2023-05-10T03:03:32;2.70;;;2.05;;
53519;SDS011;39397;53.204;5.778;2023-05-10T03:05:58;2.42;;;1.98;;
53519;SDS011;39397;53.204;5.778;2023-05-10T03:08:24;2.20;;;1.73;;
53519;SDS011;39397;53.204;5.778;2023-05-10T03:13:48;2.90;;;2.15;;
53519;SDS011;39397;53.204;5.778;2023-05-10T03:17:22;2.45;;;1.65;;
53519;SDS011;39397;53.204;5.778;2023-05-10T03:19:43;2.88;;;2.08;;
53519;SDS011;39397;53.204;5.778;2023-05-10T03:22:30;2.53;;;1.90;;
53519;SDS011;39397;53.204;5.778;2023-05-10T03:25:05;2.50;;;1.98;;
53519;SDS011;39397;53.204;5.778;2023-05-10T03:27:40;3.10;;;1.98;;
53519;SDS011;39397;53.204;5.778;2023-05-10T03:30:10;2.95;;;2.30;;
53519;SDS011;39397;53.204;5.778;2023-05-10T03:32:43;3.25;;;2.03;;
53519;SDS011;39397;53.204;5.778;2023-05-10T03:35:09;4.30;;;2.80;;
53519;SDS011;39397;53.204;5.778;2023-05-10T03:37:37;4.45;;;2.92;;
53519;SDS011;39397;53.204;5.778;2023-05-10T03:40:03;4.45;;;3.40;;
53519;SDS011;39397;53.204;5.778;2023-05-10T03:42:29;3.90;;;3.30;;
53519;SDS011;39397;53.204;5.778;2023-05-10T03:44:55;4.38;;;3.10;;
53519;SDS011;39397;53.204;5.778;2023-05-10T03:47:21;3.90;;;3.33;;
53519;SDS011;39397;53.204;5.778;2023-05-10T03:49:47;3.15;;;2.30;;
53519;SDS011;39397;53.204;5.778;2023-05-10T03:52:12;2.28;;;1.80;;
53519;SDS011;39397;53.204;5.778;2023-05-10T03:54:38;2.38;;;2.10;;
53519;SDS011;39397;53.204;5.778;2023-05-10T03:57:05;2.65;;;1.90;;
53519;SDS011;39397;53.204;5.778;2023-05-10T03:59:31;2.17;;;1.90;;
53519;SDS011;39397;53.204;5.778;2023-05-10T04:01:59;4.13;;;2.08;;
53519;SDS011;39397;53.204;5.778;2023-05-10T04:04:25;2.88;;;2.38;;
53519;SDS011;39397;53.204;5.778;2023-05-10T04:06:51;3.38;;;2.25;;
53519;SDS011;39397;53.204;5.778;2023-05-10T04:09:17;3.17;;;2.50;;
53519;SDS011;39397;53.204;5.778;2023-05-10T04:11:43;2.75;;;2.20;;
53519;SDS011;39397;53.204;5.778;2023-05-10T04:14:08;4.90;;;4.00;;
53519;SDS011;39397;53.204;5.778;2023-05-10T04:16:34;4.75;;;3.63;;
53519;SDS011;39397;53.204;5.778;2023-05-10T04:19:00;4.13;;;3.33;;
53519;SDS011;39397;53.204;5.778;2023-05-10T04:21:25;3.88;;;3.05;;
53519;SDS011;39397;53.204;5.778;2023-05-10T04:23:54;4.20;;;3.55;;
53519;SDS011;39397;53.204;5.778;2023-05-10T04:26:20;4.60;;;3.78;;
53519;SDS011;39397;53.204;5.778;2023-05-10T04:28:47;4.50;;;3.53;;
53519;SDS011;39397;53.204;5.778;2023-05-10T04:31:12;4.50;;;3.67;;
53519;SDS011;39397;53.204;5.778;2023-05-10T04:33:38;6.45;;;5.35;;
53519;SDS011;39397;53.204;5.778;2023-05-10T04:36:16;5.45;;;4.68;;
53519;SDS011;39397;53.204;5.778;2023-05-10T04:38:41;6.28;;;5.65;;
53519;SDS011;39397;53.204;5.778;2023-05-10T04:41:09;6.07;;;5.13;;
53519;SDS011;39397;53.204;5.778;2023-05-10T04:43:37;7.13;;;6.32;;
53519;SDS011;39397;53.204;5.778;2023-05-10T04:46:12;9.05;;;7.38;;
53519;SDS011;39397;53.204;5.778;2023-05-10T04:48:37;8.30;;;7.50;;
53519;SDS011;39397;53.204;5.778;2023-05-10T04:51:03;9.63;;;8.63;;
53519;SDS011;39397;53.204;5.778;2023-05-10T04:53:29;10.68;;;9.57;;
53519;SDS011;39397;53.204;5.778;2023-05-10T04:55:55;12.52;;;9.95;;
53519;SDS011;39397;53.204;5.778;2023-05-10T04:58:21;11.60;;;10.07;;
53519;SDS011;39397;53.204;5.778;2023-05-10T05:00:46;11.15;;;9.63;;
53519;SDS011;39397;53.204;5.778;2023-05-10T05:03:12;11.90;;;8.95;;
53519;SDS011;39397;53.204;5.778;2023-05-10T05:05:38;10.25;;;8.98;;
53519;SDS011;39397;53.204;5.778;2023-05-10T05:08:04;10.20;;;9.18;;
53519;SDS011;39397;53.204;5.778;2023-05-10T05:10:30;11.52;;;7.70;;
53519;SDS011;39397;53.204;5.778;2023-05-10T05:12:56;9.57;;;7.30;;
53519;SDS011;39397;53.204;5.778;2023-05-10T05:15:22;9.68;;;7.95;;
53519;SDS011;39397;53.204;5.778;2023-05-10T05:17:47;12.90;;;8.02;;
53519;SDS011;39397;53.204;5.778;2023-05-10T05:20:13;11.73;;;8.88;;
53519;SDS011;39397;53.204;5.778;2023-05-10T05:22:39;11.25;;;6.70;;
53519;SDS011;39397;53.204;5.778;2023-05-10T05:25:04;11.02;;;7.07;;
53519;SDS011;39397;53.204;5.778;2023-05-10T05:27:31;9.73;;;6.15;;
53519;SDS011;39397;53.204;5.778;2023-05-10T05:30:07;7.53;;;6.18;;
53519;SDS011;39397;53.204;5.778;2023-05-10T05:32:34;7.75;;;5.93;;
53519;SDS011;39397;53.204;5.778;2023-05-10T05:35:00;7.75;;;5.85;;
53519;SDS011;39397;53.204;5.778;2023-05-10T05:37:26;9.75;;;6.07;;
53519;SDS011;39397;53.204;5.778;2023-05-10T05:39:52;9.32;;;7.00;;
53519;SDS011;39397;53.204;5.778;2023-05-10T05:42:20;6.38;;;4.28;;
53519;SDS011;39397;53.204;5.778;2023-05-10T05:44:46;6.72;;;4.00;;
53519;SDS011;39397;53.204;5.778;2023-05-10T05:47:12;6.68;;;3.47;;
53519;SDS011;39397;53.204;5.778;2023-05-10T05:49:46;5.03;;;3.60;;
53519;SDS011;39397;53.204;5.778;2023-05-10T05:52:12;6.20;;;3.95;;
53519;SDS011;39397;53.204;5.778;2023-05-10T05:54:50;5.07;;;3.70;;
53519;SDS011;39397;53.204;5.778;2023-05-10T05:57:25;7.13;;;3.85;;
53519;SDS011;39397;53.204;5.778;2023-05-10T05:59:57;4.50;;;2.90;;
53519;SDS011;39397;53.204;5.778;2023-05-10T06:02:32;4.10;;;2.90;;
53519;SDS011;39397;53.204;5.778;2023-05-10T06:04:58;3.15;;;1.90;;
53519;SDS011;39397;53.204;5.778;2023-05-10T06:07:23;4.35;;;2.70;;
53519;SDS011;39397;53.204;5.778;2023-05-10T06:09:50;4.10;;;2.50;;
53519;SDS011;39397;53.204;5.778;2023-05-10T06:12:16;5.18;;;2.33;;
53519;SDS011;39397;53.204;5.778;2023-05-10T06:14:42;5.05;;;2.70;;
53519;SDS011;39397;53.204;5.778;2023-05-10T06:17:07;4.38;;;2.88;;
53519;SDS011;39397;53.204;5.778;2023-05-10T06:19:33;6.05;;;3.50;;
53519;SDS011;39397;53.204;5.778;2023-05-10T06:21:59;6.05;;;3.72;;
53519;SDS011;39397;53.204;5.778;2023-05-10T06:24:25;5.75;;;3.78;;
53519;SDS011;39397;53.204;5.778;2023-05-10T06:26:52;6.43;;;3.97;;
53519;SDS011;39397;53.204;5.778;2023-05-10T06:29:17;6.50;;;3.97;;
53519;SDS011;39397;53.204;5.778;2023-05-10T06:31:43;5.50;;;3.58;;
53519;SDS011;39397;53.204;5.778;2023-05-10T06:34:09;4.88;;;3.50;;
53519;SDS011;39397;53.204;5.778;2023-05-10T06:36:36;7.15;;;4.00;;
53519;SDS011;39397;53.204;5.778;2023-05-10T06:39:02;5.88;;;4.00;;
53519;SDS011;39397;53.204;5.778;2023-05-10T06:41:28;5.35;;;3.22;;
53519;SDS011;39397;53.204;5.778;2023-05-10T06:43:55;6.88;;;3.75;;
53519;SDS011;39397;53.204;5.778;2023-05-10T06:46:41;5.13;;;3.33;;
53519;SDS011;39397;53.204;5.778;2023-05-10T06:49:08;7.00;;;3.22;;
53519;SDS011;39397;53.204;5.778;2023-05-10T06:51:34;6.05;;;3.90;;
53519;SDS011;39397;53.204;5.778;2023-05-10T06:53:59;10.10;;;4.75;;
53519;SDS011;39397;53.204;5.778;2023-05-10T06:56:25;7.20;;;5.45;;
53519;SDS011;39397;53.204;5.778;2023-05-10T06:58:51;8.73;;;4.78;;
53519;SDS011;39397;53.204;5.778;2023-05-10T07:01:16;9.98;;;5.47;;
53519;SDS011;39397;53.204;5.778;2023-05-10T07:03:42;9.40;;;6.00;;
53519;SDS011;39397;53.204;5.778;2023-05-10T07:06:08;8.90;;;5.22;;
53519;SDS011;39397;53.204;5.778;2023-05-10T07:08:34;10.07;;;5.30;;
53519;SDS011;39397;53.204;5.778;2023-05-10T07:11:06;9.00;;;5.20;;
53519;SDS011;39397;53.204;5.778;2023-05-10T07:13:32;6.25;;;3.80;;
53519;SDS011;39397;53.204;5.778;2023-05-10T07:16:00;7.35;;;3.63;;
53519;SDS011;39397;53.204;5.778;2023-05-10T07:18:27;6.85;;;5.03;;
53519;SDS011;39397;53.204;5.778;2023-05-10T07:20:53;7.03;;;4.45;;
53519;SDS011;39397;53.204;5.778;2023-05-10T07:23:18;6.78;;;4.10;;
53519;SDS011;39397;53.204;5.778;2023-05-10T07:25:47;7.25;;;3.88;;
53519;SDS011;39397;53.204;5.778;2023-05-10T07:28:14;6.45;;;4.40;;
53519;SDS011;39397;53.204;5.778;2023-05-10T07:30:41;6.00;;;4.20;;
53519;SDS011;39397;53.204;5.778;2023-05-10T07:33:08;6.53;;;4.35;;
53519;SDS011;39397;53.204;5.778;2023-05-10T07:35:35;6.40;;;4.32;;
53519;SDS011;39397;53.204;5.778;2023-05-10T07:38:01;5.38;;;3.97;;
53519;SDS011;39397;53.204;5.778;2023-05-10T07:40:30;6.13;;;4.50;;
53519;SDS011;39397;53.204;5.778;2023-05-10T07:42:55;8.55;;;5.10;;
53519;SDS011;39397;53.204;5.778;2023-05-10T07:45:21;6.35;;;5.03;;
53519;SDS011;39397;53.204;5.778;2023-05-10T07:47:48;6.13;;;4.82;;
53519;SDS011;39397;53.204;5.778;2023-05-10T07:50:14;6.80;;;4.70;;
53519;SDS011;39397;53.204;5.778;2023-05-10T07:52:40;8.68;;;5.15;;
53519;SDS011;39397;53.204;5.778;2023-05-10T07:55:06;7.43;;;4.68;;
53519;SDS011;39397;53.204;5.778;2023-05-10T07:57:33;6.50;;;5.00;;
53519;SDS011;39397;53.204;5.778;2023-05-10T07:59:59;7.35;;;5.28;;
53519;SDS011;39397;53.204;5.778;2023-05-10T08:02:24;5.88;;;4.78;;
53519;SDS011;39397;53.204;5.778;2023-05-10T08:04:50;8.15;;;5.32;;
53519;SDS011;39397;53.204;5.778;2023-05-10T08:07:16;7.03;;;5.22;;
53519;SDS011;39397;53.204;5.778;2023-05-10T08:09:42;8.50;;;5.68;;
53519;SDS011;39397;53.204;5.778;2023-05-10T08:12:08;6.63;;;4.70;;
53519;SDS011;39397;53.204;5.778;2023-05-10T08:14:34;7.18;;;5.20;;
53519;SDS011;39397;53.204;5.778;2023-05-10T08:17:01;6.68;;;5.03;;
53519;SDS011;39397;53.204;5.778;2023-05-10T08:19:28;7.25;;;4.10;;
53519;SDS011;39397;53.204;5.778;2023-05-10T08:21:54;6.88;;;4.32;;
53519;SDS011;39397;53.204;5.778;2023-05-10T08:24:21;6.15;;;4.22;;
53519;SDS011;39397;53.204;5.778;2023-05-10T08:26:47;7.55;;;4.50;;
53519;SDS011;39397;53.204;5.778;2023-05-10T08:29:13;7.15;;;4.97;;
53519;SDS011;39397;53.204;5.778;2023-05-10T08:31:39;7.35;;;5.68;;
53519;SDS011;39397;53.204;5.778;2023-05-10T08:34:05;10.25;;;5.20;;
53519;SDS011;39397;53.204;5.778;2023-05-10T08:36:31;6.75;;;5.47;;
53519;SDS011;39397;53.204;5.778;2023-05-10T08:38:57;9.32;;;5.72;;
53519;SDS011;39397;53.204;5.778;2023-05-10T08:41:23;7.53;;;5.57;;
53519;SDS011;39397;53.204;5.778;2023-05-10T08:43:51;7.28;;;5.32;;
53519;SDS011;39397;53.204;5.778;2023-05-10T08:46:18;9.77;;;5.97;;
53519;SDS011;39397;53.204;5.778;2023-05-10T08:48:45;7.75;;;5.68;;
53519;SDS011;39397;53.204;5.778;2023-05-10T08:51:13;9.60;;;5.97;;
53519;SDS011;39397;53.204;5.778;2023-05-10T08:53:41;9.90;;;5.93;;
53519;SDS011;39397;53.204;5.778;2023-05-10T08:56:07;9.38;;;6.82;;
53519;SDS011;39397;53.204;5.778;2023-05-10T08:58:33;9.55;;;6.88;;
53519;SDS011;39397;53.204;5.778;2023-05-10T09:00:59;8.10;;;5.80;;
53519;SDS011;39397;53.204;5.778;2023-05-10T09:03:25;9.38;;;6.47;;
53519;SDS011;39397;53.204;5.778;2023-05-10T09:05:51;8.63;;;6.90;;
53519;SDS011;39397;53.204;5.778;2023-05-10T09:08:17;9.82;;;6.20;;
53519;SDS011;39397;53.204;5.778;2023-05-10T09:10:43;8.32;;;6.57;;
53519;SDS011;39397;53.204;5.778;2023-05-10T09:13:12;10.68;;;6.50;;
53519;SDS011;39397;53.204;5.778;2023-05-10T09:15:40;10.25;;;6.20;;
53519;SDS011;39397;53.204;5.778;2023-05-10T09:18:06;7.75;;;5.15;;
53519;SDS011;39397;53.204;5.778;2023-05-10T09:20:32;7.55;;;5.35;;
53519;SDS011;39397;53.204;5.778;2023-05-10T09:22:57;8.40;;;5.25;;
53519;SDS011;39397;53.204;5.778;2023-05-10T09:25:23;6.68;;;4.95;;
53519;SDS011;39397;53.204;5.778;2023-05-10T09:27:49;6.72;;;4.68;;
53519;SDS011;39397;53.204;5.778;2023-05-10T09:30:15;6.95;;;5.15;;
53519;SDS011;39397;53.204;5.778;2023-05-10T09:32:48;8.68;;;5.07;;
53519;SDS011;39397;53.204;5.778;2023-05-10T09:35:16;7.97;;;5.70;;
53519;SDS011;39397;53.204;5.778;2023-05-10T09:37:43;9.02;;;5.75;;
53519;SDS011;39397;53.204;5.778;2023-05-10T09:40:14;6.30;;;5.15;;
53519;SDS011;39397;53.204;5.778;2023-05-10T09:45:30;7.82;;;5.72;;
53519;SDS011;39397;53.204;5.778;2023-05-10T09:47:58;7.80;;;6.03;;
53519;SDS011;39397;53.204;5.778;2023-05-10T09:50:25;8.55;;;6.03;;
53519;SDS011;39397;53.204;5.778;2023-05-10T09:52:52;8.15;;;5.53;;
53519;SDS011;39397;53.204;5.778;2023-05-10T09:55:26;7.07;;;5.60;;
53519;SDS011;39397;53.204;5.778;2023-05-10T09:58:09;10.68;;;6.70;;
53519;SDS011;39397;53.204;5.778;2023-05-10T10:00:39;9.18;;;6.60;;
53519;SDS011;39397;53.204;5.778;2023-05-10T10:03:07;9.35;;;6.63;;
53519;SDS011;39397;53.204;5.778;2023-05-10T10:05:41;8.40;;;6.38;;
53519;SDS011;39397;53.204;5.778;2023-05-10T10:08:08;7.57;;;6.10;;
53519;SDS011;39397;53.204;5.778;2023-05-10T10:10:35;9.07;;;6.38;;
53519;SDS011;39397;53.204;5.778;2023-05-10T10:13:01;8.32;;;6.55;;
53519;SDS011;39397;53.204;5.778;2023-05-10T10:15:27;8.82;;;7.05;;
53519;SDS011;39397;53.204;5.778;2023-05-10T10:17:53;9.05;;;6.90;;
53519;SDS011;39397;53.204;5.778;2023-05-10T10:20:19;8.15;;;6.88;;
53519;SDS011;39397;53.204;5.778;2023-05-10T10:22:47;9.45;;;7.43;;
53519;SDS011;39397;53.204;5.778;2023-05-10T10:25:13;8.65;;;6.70;;
53519;SDS011;39397;53.204;5.778;2023-05-10T10:28:26;7.55;;;6.40;;
53519;SDS011;39397;53.204;5.778;2023-05-10T10:30:41;7.70;;;5.32;;
53519;SDS011;39397;53.204;5.778;2023-05-10T10:35:39;8.05;;;6.03;;
53519;SDS011;39397;53.204;5.778;2023-05-10T10:38:07;5.55;;;4.57;;
53519;SDS011;39397;53.204;5.778;2023-05-10T10:40:34;6.28;;;4.72;;
53519;SDS011;39397;53.204;5.778;2023-05-10T10:46:10;7.43;;;5.47;;
53519;SDS011;39397;53.204;5.778;2023-05-10T10:48:48;7.05;;;5.00;;
53519;SDS011;39397;53.204;5.778;2023-05-10T10:51:16;6.45;;;4.38;;
53519;SDS011;39397;53.204;5.778;2023-05-10T10:53:42;6.30;;;4.25;;
53519;SDS011;39397;53.204;5.778;2023-05-10T10:56:09;6.63;;;3.83;;
53519;SDS011;39397;53.204;5.778;2023-05-10T10:58:42;6.65;;;4.10;;
53519;SDS011;39397;53.204;5.778;2023-05-10T11:01:17;6.60;;;4.20;;
53519;SDS011;39397;53.204;5.778;2023-05-10T11:06:34;5.13;;;3.65;;
53519;SDS011;39397;53.204;5.778;2023-05-10T11:09:10;7.13;;;4.35;;
53519;SDS011;39397;53.204;5.778;2023-05-10T11:11:53;6.22;;;4.95;;
53519;SDS011;39397;53.204;5.778;2023-05-10T11:14:23;6.80;;;4.60;;
53519;SDS011;39397;53.204;5.778;2023-05-10T11:16:49;6.68;;;4.68;;
53519;SDS011;39397;53.204;5.778;2023-05-10T11:19:15;6.55;;;5.00;;
53519;SDS011;39397;53.204;5.778;2023-05-10T11:24:38;5.70;;;4.32;;
53519;SDS011;39397;53.204;5.778;2023-05-10T11:27:03;6.57;;;5.07;;
53519;SDS011;39397;53.204;5.778;2023-05-10T11:29:30;5.40;;;4.65;;
53519;SDS011;39397;53.204;5.778;2023-05-10T11:31:56;6.75;;;5.65;;
53519;SDS011;39397;53.204;5.778;2023-05-10T11:34:24;7.32;;;5.75;;
53519;SDS011;39397;53.204;5.778;2023-05-10T11:36:55;8.07;;;5.03;;
53519;SDS011;39397;53.204;5.778;2023-05-10T11:39:25;6.38;;;5.05;;
53519;SDS011;39397;53.204;5.778;2023-05-10T11:41:56;7.95;;;5.82;;
53519;SDS011;39397;53.204;5.778;2023-05-10T11:44:23;6.60;;;5.65;;
53519;SDS011;39397;53.204;5.778;2023-05-10T11:46:54;10.45;;;7.32;;
53519;SDS011;39397;53.204;5.778;2023-05-10T11:49:22;8.73;;;6.43;;
53519;SDS011;39397;53.204;5.778;2023-05-10T11:51:51;10.05;;;8.13;;
53519;SDS011;39397;53.204;5.778;2023-05-10T11:54:16;15.07;;;9.40;;
53519;SDS011;39397;53.204;5.778;2023-05-10T11:56:42;10.20;;;8.88;;
53519;SDS011;39397;53.204;5.778;2023-05-10T11:59:08;10.07;;;7.53;;
53519;SDS011;39397;53.204;5.778;2023-05-10T12:01:33;7.70;;;6.80;;
53519;SDS011;39397;53.204;5.778;2023-05-10T12:04:02;10.25;;;7.45;;
53519;SDS011;39397;53.204;5.778;2023-05-10T12:06:29;8.43;;;7.50;;
53519;SDS011;39397;53.204;5.778;2023-05-10T12:08:57;9.07;;;7.63;;
53519;SDS011;39397;53.204;5.778;2023-05-10T12:11:26;10.93;;;8.20;;
53519;SDS011;39397;53.204;5.778;2023-05-10T12:13:53;9.30;;;7.28;;
53519;SDS011;39397;53.204;5.778;2023-05-10T12:16:20;8.98;;;7.20;;
53519;SDS011;39397;53.204;5.778;2023-05-10T12:18:55;10.32;;;8.07;;
53519;SDS011;39397;53.204;5.778;2023-05-10T12:21:22;8.82;;;7.68;;
53519;SDS011;39397;53.204;5.778;2023-05-10T12:23:49;8.38;;;6.80;;
53519;SDS011;39397;53.204;5.778;2023-05-10T12:26:16;9.48;;;6.03;;
53519;SDS011;39397;53.204;5.778;2023-05-10T12:28:43;8.88;;;5.82;;
53519;SDS011;39397;53.204;5.778;2023-05-10T12:31:09;7.28;;;6.13;;
53519;SDS011;39397;53.204;5.778;2023-05-10T12:33:39;7.78;;;6.40;;
53519;SDS011;39397;53.204;5.778;2023-05-10T12:36:07;7.47;;;5.25;;
53519;SDS011;39397;53.204;5.778;2023-05-10T12:38:39;8.02;;;6.28;;
53519;SDS011;39397;53.204;5.778;2023-05-10T12:41:17;9.75;;;6.53;;
53519;SDS011;39397;53.204;5.778;2023-05-10T12:43:44;8.18;;;6.18;;
53519;SDS011;39397;53.204;5.778;2023-05-10T12:46:11;9.27;;;5.60;;
53519;SDS011;39397;53.204;5.778;2023-05-10T12:48:42;8.88;;;6.95;;
53519;SDS011;39397;53.204;5.778;2023-05-10T12:51:09;6.65;;;5.28;;
53519;SDS011;39397;53.204;5.778;2023-05-10T12:53:38;10.52;;;7.10;;
53519;SDS011;39397;53.204;5.778;2023-05-10T12:56:04;7.93;;;6.20;;
53519;SDS011;39397;53.204;5.778;2023-05-10T12:58:30;8.48;;;6.30;;
53519;SDS011;39397;53.204;5.778;2023-05-10T13:00:56;8.00;;;6.05;;
53519;SDS011;39397;53.204;5.778;2023-05-10T13:03:23;7.55;;;5.00;;
53519;SDS011;39397;53.204;5.778;2023-05-10T13:05:48;11.90;;;7.10;;
53519;SDS011;39397;53.204;5.778;2023-05-10T13:08:14;8.68;;;5.45;;
53519;SDS011;39397;53.204;5.778;2023-05-10T13:10:40;9.75;;;7.15;;
53519;SDS011;39397;53.204;5.778;2023-05-10T13:13:06;9.63;;;6.72;;
53519;SDS011;39397;53.204;5.778;2023-05-10T13:15:32;9.98;;;7.03;;
53519;SDS011;39397;53.204;5.778;2023-05-10T13:17:58;10.85;;;6.55;;
53519;SDS011;39397;53.204;5.778;2023-05-10T13:20:24;10.65;;;7.85;;
53519;SDS011;39397;53.204;5.778;2023-05-10T13:22:50;10.52;;;8.45;;
53519;SDS011;39397;53.204;5.778;2023-05-10T13:25:16;10.75;;;9.15;;
53519;SDS011;39397;53.204;5.778;2023-05-10T13:27:42;7.97;;;5.90;;
53519;SDS011;39397;53.204;5.778;2023-05-10T13:30:08;7.70;;;5.82;;
53519;SDS011;39397;53.204;5.778;2023-05-10T13:32:34;6.85;;;5.10;;
53519;SDS011;39397;53.204;5.778;2023-05-10T13:35:00;6.32;;;4.68;;
53519;SDS011;39397;53.204;5.778;2023-05-10T13:37:28;6.00;;;4.68;;
53519;SDS011;39397;53.204;5.778;2023-05-10T13:39:54;7.60;;;6.80;;
53519;SDS011;39397;53.204;5.778;2023-05-10T13:42:21;7.05;;;6.35;;
53519;SDS011;39397;53.204;5.778;2023-05-10T13:44:48;7.68;;;6.05;;
53519;SDS011;39397;53.204;5.778;2023-05-10T13:47:14;6.45;;;5.65;;
53519;SDS011;39397;53.204;5.778;2023-05-10T13:49:39;5.90;;;5.22;;
53519;SDS011;39397;53.204;5.778;2023-05-10T13:52:05;5.25;;;4.28;;
53519;SDS011;39397;53.204;5.778;2023-05-10T13:54:35;4.60;;;3.97;;
53519;SDS011;39397;53.204;5.778;2023-05-10T13:57:02;5.43;;;3.55;;
53519;SDS011;39397;53.204;5.778;2023-05-10T13:59:28;6.38;;;5.53;;
53519;SDS011;39397;53.204;5.778;2023-05-10T14:01:56;7.15;;;5.13;;
53519;SDS011;39397;53.204;5.778;2023-05-10T14:04:22;5.13;;;4.63;;
53519;SDS011;39397;53.204;5.778;2023-05-10T14:06:48;5.15;;;4.63;;
53519;SDS011;39397;53.204;5.778;2023-05-10T14:09:14;4.88;;;3.95;;
53519;SDS011;39397;53.204;5.778;2023-05-10T14:11:39;6.25;;;4.20;;
53519;SDS011;39397;53.204;5.778;2023-05-10T14:14:09;5.10;;;4.43;;
53519;SDS011;39397;53.204;5.778;2023-05-10T14:16:35;4.65;;;3.70;;
53519;SDS011;39397;53.204;5.778;2023-05-10T14:19:00;5.47;;;4.00;;
53519;SDS011;39397;53.204;5.778;2023-05-10T14:21:26;4.75;;;4.13;;
53519;SDS011;39397;53.204;5.778;2023-05-10T14:23:54;5.22;;;3.55;;
53519;SDS011;39397;53.204;5.778;2023-05-10T14:26:20;4.35;;;3.28;;
53519;SDS011;39397;53.204;5.778;2023-05-10T14:28:46;5.47;;;3.55;;
53519;SDS011;39397;53.204;5.778;2023-05-10T14:31:12;4.55;;;3.88;;
53519;SDS011;39397;53.204;5.778;2023-05-10T14:33:39;6.68;;;4.70;;
53519;SDS011;39397;53.204;5.778;2023-05-10T14:36:05;5.70;;;4.65;;
53519;SDS011;39397;53.204;5.778;2023-05-10T14:38:31;5.72;;;4.60;;
53519;SDS011;39397;53.204;5.778;2023-05-10T14:40:57;7.28;;;4.95;;
53519;SDS011;39397;53.204;5.778;2023-05-10T14:43:23;6.22;;;4.88;;
53519;SDS011;39397;53.204;5.778;2023-05-10T14:45:49;4.90;;;4.30;;
53519;SDS011;39397;53.204;5.778;2023-05-10T14:48:15;5.47;;;4.85;;
53519;SDS011;39397;53.204;5.778;2023-05-10T14:50:42;7.50;;;4.40;;
53519;SDS011;39397;53.204;5.778;2023-05-10T14:53:08;8.23;;;5.47;;
53519;SDS011;39397;53.204;5.778;2023-05-10T14:55:34;5.90;;;5.15;;
53519;SDS011;39397;53.204;5.778;2023-05-10T14:58:01;5.65;;;4.65;;
53519;SDS011;39397;53.204;5.778;2023-05-10T15:00:28;5.10;;;4.22;;
53519;SDS011;39397;53.204;5.778;2023-05-10T15:02:54;7.07;;;4.60;;
53519;SDS011;39397;53.204;5.778;2023-05-10T15:05:20;5.65;;;4.53;;
53519;SDS011;39397;53.204;5.778;2023-05-10T15:07:45;6.63;;;5.30;;
53519;SDS011;39397;53.204;5.778;2023-05-10T15:10:11;6.35;;;4.93;;
53519;SDS011;39397;53.204;5.778;2023-05-10T15:12:38;5.75;;;4.78;;
53519;SDS011;39397;53.204;5.778;2023-05-10T15:15:04;5.20;;;4.25;;
53519;SDS011;39397;53.204;5.778;2023-05-10T15:17:31;5.65;;;4.70;;
53519;SDS011;39397;53.204;5.778;2023-05-10T15:19:56;7.15;;;5.25;;
53519;SDS011;39397;53.204;5.778;2023-05-10T15:22:22;6.32;;;4.57;;